createdAt,value
2023-03-15T00:01:52.555Z,2.65
2023-03-15T00:04:19.405Z,1.92
2023-03-15T00:06:48.710Z,2.08
2023-03-15T00:09:15.533Z,2.67
2023-03-15T00:11:42.278Z,2.85
2023-03-15T00:14:11.247Z,2.28
2023-03-15T00:16:42.817Z,2.42
2023-03-15T00:19:10.698Z,2.05
2023-03-15T00:21:40.167Z,2.30
2023-03-15T00:24:10.383Z,2.47
2023-03-15T00:29:04.978Z,2.25
2023-03-15T00:31:31.727Z,2.17
2023-03-15T00:33:58.477Z,2.78
2023-03-15T00:36:25.742Z,2.67
2023-03-15T00:38:55.049Z,3.08
2023-03-15T00:41:22.986Z,3.10
2023-03-15T00:43:50.164Z,2.20
2023-03-15T00:46:18.428Z,2.80
2023-03-15T00:48:48.819Z,2.65
2023-03-15T00:51:18.622Z,2.75
2023-03-15T00:53:46.728Z,2.90
2023-03-15T00:56:16.435Z,2.47
2023-03-15T00:58:43.336Z,1.90
2023-03-15T01:01:16.433Z,2.55
2023-03-15T01:03:43.915Z,2.22
2023-03-15T01:06:16.391Z,1.90
2023-03-15T01:08:43.862Z,1.80
2023-03-15T01:11:16.552Z,1.80
2023-03-15T01:13:43.500Z,2.35
2023-03-15T01:16:14.788Z,1.77
2023-03-15T01:18:41.668Z,2.05
2023-03-15T01:21:10.301Z,2.83
2023-03-15T01:23:37.103Z,1.92
2023-03-15T01:26:06.099Z,2.53
2023-03-15T01:28:32.911Z,2.83
2023-03-15T01:31:00.154Z,2.25
2023-03-15T01:33:27.026Z,1.98
2023-03-15T01:36:05.832Z,2.20
2023-03-15T01:38:33.211Z,3.85
2023-03-15T01:41:00.810Z,2.72
2023-03-15T01:43:29.367Z,2.30
2023-03-15T01:46:02.201Z,2.72
2023-03-15T01:48:35.135Z,3.10
2023-03-15T01:51:11.382Z,2.90
2023-03-15T01:53:39.295Z,2.90
2023-03-15T01:56:06.697Z,2.80
2023-03-15T01:58:36.786Z,2.78
2023-03-15T02:01:03.868Z,3.38
2023-03-15T02:03:46.469Z,2.72
2023-03-15T02:06:18.125Z,3.13
2023-03-15T02:08:51.927Z,3.00
2023-03-15T02:11:21.832Z,3.15
2023-03-15T02:13:49.953Z,2.70
2023-03-15T02:16:18.495Z,3.95
2023-03-15T02:18:47.630Z,3.05
2023-03-15T02:21:20.929Z,3.10
2023-03-15T02:24:10.598Z,3.42
2023-03-15T02:26:53.366Z,3.15
2023-03-15T02:29:21.755Z,3.35
2023-03-15T02:31:51.997Z,3.80
2023-03-15T02:34:19.118Z,3.20
2023-03-15T02:36:45.800Z,3.10
2023-03-15T02:39:17.275Z,3.38
2023-03-15T02:41:53.069Z,3.30
2023-03-15T02:44:26.125Z,3.30
2023-03-15T02:46:59.587Z,3.60
2023-03-15T02:49:29.689Z,3.80
2023-03-15T02:54:25.313Z,3.70
2023-03-15T02:56:52.031Z,4.07
2023-03-15T02:59:21.264Z,3.72
2023-03-15T03:01:48.703Z,4.70
2023-03-15T03:04:15.390Z,4.15
2023-03-15T03:06:43.848Z,3.97
2023-03-15T03:09:11.726Z,3.53
2023-03-15T03:11:38.410Z,3.72
2023-03-15T03:14:07.665Z,3.75
2023-03-15T03:16:36.654Z,3.57
2023-03-15T03:19:04.096Z,4.50
2023-03-15T03:21:31.113Z,4.10
2023-03-15T03:23:57.834Z,3.70
2023-03-15T03:26:27.805Z,4.03
2023-03-15T03:28:55.875Z,4.03
2023-03-15T03:31:27.137Z,4.20
2023-03-15T03:33:57.993Z,4.13
2023-03-15T03:36:25.005Z,3.97
2023-03-15T03:38:52.480Z,4.30
2023-03-15T03:41:21.930Z,4.28
2023-03-15T03:43:48.649Z,4.03
2023-03-15T03:46:17.689Z,4.13
2023-03-15T03:48:44.529Z,4.38
2023-03-15T03:51:11.296Z,3.30
2023-03-15T03:53:38.012Z,4.07
2023-03-15T03:56:10.286Z,3.90
2023-03-15T03:58:37.032Z,4.57
2023-03-15T04:01:04.113Z,4.10
2023-03-15T04:03:31.221Z,4.15
2023-03-15T04:05:59.736Z,4.25
2023-03-15T04:08:26.847Z,4.80
2023-03-15T04:10:57.237Z,4.00
2023-03-15T04:13:24.759Z,3.92
2023-03-15T04:15:52.229Z,4.32
2023-03-15T04:18:19.570Z,4.60
2023-03-15T04:20:47.827Z,4.40
2023-03-15T04:23:20.243Z,4.63
2023-03-15T04:25:51.571Z,4.78
2023-03-15T04:28:20.560Z,4.43
2023-03-15T04:30:50.935Z,4.32
2023-03-15T04:33:19.878Z,5.35
2023-03-15T04:35:48.782Z,4.72
2023-03-15T04:38:17.697Z,4.63
2023-03-15T04:40:46.898Z,5.20
2023-03-15T04:43:16.341Z,4.85
2023-03-15T04:45:42.994Z,5.10
2023-03-15T04:48:12.237Z,5.10
2023-03-15T04:50:38.923Z,4.83
2023-03-15T04:53:05.875Z,5.63
2023-03-15T04:55:35.048Z,4.50
2023-03-15T04:58:01.808Z,5.82
2023-03-15T05:00:28.545Z,5.05
2023-03-15T05:02:55.362Z,5.60
2023-03-15T05:05:23.858Z,4.90
2023-03-15T05:07:50.761Z,5.05
2023-03-15T05:10:17.776Z,5.03
2023-03-15T05:12:44.507Z,4.78
2023-03-15T05:15:13.019Z,4.55
2023-03-15T05:17:39.741Z,5.05
2023-03-15T05:20:12.841Z,5.05
2023-03-15T05:22:40.731Z,3.70
2023-03-15T05:25:08.791Z,2.88
2023-03-15T05:27:35.769Z,2.85
2023-03-15T05:30:05.697Z,2.78
2023-03-15T05:32:35.248Z,2.63
2023-03-15T05:35:02.701Z,2.60
2023-03-15T05:37:30.242Z,2.10
2023-03-15T05:39:56.954Z,2.20
2023-03-15T05:42:26.247Z,1.90
2023-03-15T05:44:56.913Z,1.83
2023-03-15T05:47:23.981Z,1.98
2023-03-15T05:49:50.734Z,1.42
2023-03-15T05:52:17.424Z,1.20
2023-03-15T05:54:44.068Z,1.90
2023-03-15T05:57:11.535Z,1.45
2023-03-15T05:59:38.213Z,1.25
2023-03-15T06:02:07.385Z,1.23
2023-03-15T06:04:34.311Z,1.30
2023-03-15T06:07:01.045Z,1.20
2023-03-15T06:09:30.167Z,1.30
2023-03-15T06:11:57.445Z,1.40
2023-03-15T06:14:24.190Z,1.20
2023-03-15T06:16:53.308Z,0.90
2023-03-15T06:19:21.229Z,1.20
2023-03-15T06:21:48.705Z,0.85
2023-03-15T06:24:17.773Z,0.85
2023-03-15T06:26:44.486Z,0.85
2023-03-15T06:29:11.210Z,1.00
2023-03-15T06:31:37.907Z,1.05
2023-03-15T06:34:06.956Z,0.95
2023-03-15T06:36:36.964Z,0.90
2023-03-15T06:39:06.141Z,1.05
2023-03-15T06:41:37.792Z,0.90
2023-03-15T06:44:04.805Z,1.13
2023-03-15T06:46:33.751Z,1.10
2023-03-15T06:49:03.298Z,1.77
2023-03-15T06:51:30.113Z,1.38
2023-03-15T06:53:56.757Z,1.30
2023-03-15T06:56:26.058Z,1.60
2023-03-15T06:58:52.818Z,1.87
2023-03-15T07:01:19.605Z,2.40
2023-03-15T07:03:46.362Z,2.00
2023-03-15T07:06:13.067Z,2.50
2023-03-15T07:08:39.759Z,2.60
2023-03-15T07:11:06.488Z,2.60
2023-03-15T07:13:35.453Z,2.45
2023-03-15T07:16:02.183Z,3.20
2023-03-15T07:18:28.907Z,3.10
2023-03-15T07:21:00.057Z,3.85
2023-03-15T07:23:27.230Z,3.40
2023-03-15T07:25:55.786Z,3.80
2023-03-15T07:28:24.408Z,3.88
2023-03-15T07:30:57.757Z,4.00
2023-03-15T07:33:29.111Z,4.03
2023-03-15T07:35:56.303Z,4.45
2023-03-15T07:38:28.912Z,4.50
2023-03-15T07:41:03.422Z,5.30
2023-03-15T07:43:30.130Z,5.78
2023-03-15T07:45:59.193Z,5.68
2023-03-15T07:48:26.212Z,5.80
2023-03-15T07:50:52.971Z,6.50
2023-03-15T07:53:19.825Z,6.65
2023-03-15T07:55:48.856Z,6.47
2023-03-15T07:58:20.320Z,6.05
2023-03-15T08:00:47.733Z,6.53
2023-03-15T08:03:14.612Z,5.50
2023-03-15T08:05:43.476Z,6.20
2023-03-15T08:08:10.177Z,6.53
2023-03-15T08:10:36.965Z,7.50
2023-03-15T08:13:03.664Z,6.93
2023-03-15T08:15:30.420Z,7.13
2023-03-15T08:17:57.170Z,6.53
2023-03-15T08:20:23.850Z,6.80
2023-03-15T08:22:51.467Z,6.47
2023-03-15T08:25:26.156Z,6.63
2023-03-15T08:27:52.930Z,6.13
2023-03-15T08:30:21.496Z,6.72
2023-03-15T08:32:49.517Z,7.25
2023-03-15T08:35:19.903Z,7.25
2023-03-15T08:37:47.737Z,7.93
2023-03-15T08:40:25.393Z,7.75
2023-03-15T08:42:53.908Z,7.78
2023-03-15T08:45:26.858Z,7.90
2023-03-15T08:47:57.799Z,8.13
2023-03-15T08:50:25.853Z,8.25
2023-03-15T08:52:55.294Z,8.48
2023-03-15T08:55:22.044Z,7.90
2023-03-15T08:57:49.314Z,8.68
2023-03-15T09:00:20.491Z,8.45
2023-03-15T09:02:49.117Z,8.10
2023-03-15T09:05:16.897Z,7.82
2023-03-15T09:07:44.735Z,7.05
2023-03-15T09:10:16.156Z,7.85
2023-03-15T09:12:53.624Z,7.38
2023-03-15T09:15:23.548Z,7.80
2023-03-15T09:17:52.882Z,7.15
2023-03-15T09:20:22.321Z,7.70
2023-03-15T09:22:54.420Z,7.03
2023-03-15T09:25:21.736Z,7.82
2023-03-15T09:27:48.781Z,7.90
2023-03-15T09:30:16.617Z,8.18
2023-03-15T09:32:46.177Z,7.97
2023-03-15T09:35:18.310Z,7.43
2023-03-15T09:37:45.573Z,8.25
2023-03-15T09:40:29.377Z,9.00
2023-03-15T09:43:08.795Z,8.70
2023-03-15T09:46:06.347Z,9.20
2023-03-15T09:48:37.870Z,8.13
2023-03-15T09:51:35.633Z,7.95
2023-03-15T09:54:11.419Z,8.30
2023-03-15T09:56:56.375Z,7.40
2023-03-15T09:59:29.685Z,7.97
2023-03-15T10:01:58.501Z,7.13
2023-03-15T10:04:42.205Z,6.18
2023-03-15T10:07:15.772Z,7.03
2023-03-15T10:09:43.534Z,6.20
2023-03-15T10:12:21.467Z,6.78
2023-03-15T10:15:16.257Z,6.10
2023-03-15T10:18:09.525Z,6.18
2023-03-15T10:20:49.512Z,6.00
2023-03-15T10:23:21.971Z,6.25
2023-03-15T10:25:51.659Z,6.05
2023-03-15T10:28:23.934Z,7.32
2023-03-15T10:30:53.890Z,6.50
2023-03-15T10:33:33.802Z,7.05
2023-03-15T10:36:10.893Z,6.63
2023-03-15T10:38:39.303Z,7.30
2023-03-15T10:41:07.290Z,6.82
2023-03-15T10:43:37.071Z,6.50
2023-03-15T10:46:08.551Z,6.72
2023-03-15T10:48:37.833Z,7.95
2023-03-15T10:51:26.169Z,7.50
2023-03-15T10:53:59.527Z,7.75
2023-03-15T10:56:29.189Z,6.13
2023-03-15T10:59:11.936Z,6.65
2023-03-15T11:01:39.747Z,5.85
2023-03-15T11:04:21.655Z,6.90
2023-03-15T11:07:03.197Z,6.97
2023-03-15T11:09:44.757Z,5.68
2023-03-15T11:12:21.433Z,5.60
2023-03-15T11:14:56.795Z,4.97
2023-03-15T11:17:33.627Z,4.68
2023-03-15T11:20:13.129Z,5.35
2023-03-15T11:22:40.299Z,4.80
2023-03-15T11:25:17.607Z,5.30
2023-03-15T11:27:51.850Z,5.25
2023-03-15T11:30:21.399Z,4.60
2023-03-15T11:32:50.890Z,4.20
2023-03-15T11:35:28.634Z,5.18
2023-03-15T11:38:15.769Z,4.82
2023-03-15T11:40:53.635Z,4.00
2023-03-15T11:43:29.756Z,3.70
2023-03-15T11:46:13.211Z,4.40
2023-03-15T11:48:50.514Z,3.92
2023-03-15T11:51:19.760Z,3.70
2023-03-15T11:54:05.872Z,3.73
2023-03-15T11:56:44.809Z,4.82
2023-03-15T11:59:17.438Z,3.80
2023-03-15T12:02:21.776Z,4.00
2023-03-15T12:04:52.949Z,3.95
2023-03-15T12:07:19.667Z,3.22
2023-03-15T12:10:00.174Z,2.85
2023-03-15T12:12:26.899Z,3.08
2023-03-15T12:15:11.948Z,3.13
2023-03-15T12:17:59.625Z,2.97
2023-03-15T12:20:43.273Z,3.17
2023-03-15T12:23:19.234Z,3.22
2023-03-15T12:25:55.582Z,3.33
2023-03-15T12:28:35.056Z,3.17
2023-03-15T12:31:07.217Z,3.20
2023-03-15T12:33:46.831Z,3.78
2023-03-15T12:36:38.887Z,2.63
2023-03-15T12:39:17.867Z,3.13
2023-03-15T12:41:49.238Z,3.53
2023-03-15T12:44:26.701Z,2.88
2023-03-15T12:46:57.842Z,2.92
2023-03-15T12:49:24.489Z,3.45
2023-03-15T12:51:59.897Z,3.05
2023-03-15T12:54:34.817Z,3.33
2023-03-15T12:57:04.213Z,2.75
2023-03-15T12:59:38.178Z,2.92
2023-03-15T13:02:29.513Z,2.80
2023-03-15T13:05:17.614Z,2.97
2023-03-15T13:08:05.671Z,2.75
2023-03-15T13:10:50.806Z,2.45
2023-03-15T13:13:46.929Z,2.80
2023-03-15T13:16:28.105Z,2.17
2023-03-15T13:19:14.186Z,1.98
2023-03-15T13:22:01.669Z,2.17
2023-03-15T13:24:52.452Z,2.10
2023-03-15T13:27:44.574Z,2.13
2023-03-15T13:30:35.074Z,2.42
2023-03-15T13:33:18.759Z,1.83
2023-03-15T13:35:50.617Z,1.73
2023-03-15T13:38:33.146Z,1.95
2023-03-15T13:41:03.597Z,2.08
2023-03-15T13:43:34.297Z,1.58
2023-03-15T13:46:01.772Z,1.50
2023-03-15T13:48:37.646Z,2.70
2023-03-15T13:51:07.335Z,2.20
2023-03-15T13:53:48.940Z,2.05
2023-03-15T13:56:20.854Z,1.75
2023-03-15T13:58:52.521Z,1.40
2023-03-15T14:01:23.074Z,1.90
2023-03-15T14:03:59.110Z,1.52
2023-03-15T14:06:27.783Z,1.55
2023-03-15T14:09:00.562Z,1.88
2023-03-15T14:11:37.100Z,1.50
2023-03-15T14:14:16.003Z,1.60
2023-03-15T14:17:02.936Z,1.50
2023-03-15T14:19:31.510Z,1.50
2023-03-15T14:22:01.101Z,1.40
2023-03-15T14:24:38.515Z,1.48
2023-03-15T14:27:16.919Z,1.33
2023-03-15T14:29:59.286Z,1.15
2023-03-15T14:32:37.555Z,1.40
2023-03-15T14:35:31.860Z,1.35
2023-03-15T14:38:20.349Z,1.13
2023-03-15T14:40:48.080Z,1.20
2023-03-15T14:43:14.821Z,1.40
2023-03-15T14:45:48.846Z,1.40
2023-03-15T14:48:21.456Z,1.33
2023-03-15T14:50:48.673Z,1.30
2023-03-15T14:53:19.980Z,1.67
2023-03-15T14:55:46.793Z,1.75
2023-03-15T14:58:18.908Z,1.02
2023-03-15T15:00:57.825Z,1.30
2023-03-15T15:03:39.756Z,1.40
2023-03-15T15:06:13.417Z,1.30
2023-03-15T15:08:44.152Z,1.45
2023-03-15T15:11:11.249Z,1.48
2023-03-15T15:13:38.929Z,1.52
2023-03-15T15:16:06.191Z,1.63
2023-03-15T15:18:36.935Z,1.48
2023-03-15T15:21:18.336Z,1.30
2023-03-15T15:23:57.264Z,1.42
2023-03-15T15:26:28.783Z,1.15
2023-03-15T15:28:56.618Z,1.25
2023-03-15T15:31:25.650Z,1.15
2023-03-15T15:33:56.042Z,1.70
2023-03-15T15:36:26.424Z,1.40
2023-03-15T15:38:55.856Z,1.25
2023-03-15T15:41:25.369Z,1.27
2023-03-15T15:43:54.805Z,1.45
2023-03-15T15:46:24.052Z,1.55
2023-03-15T15:48:54.500Z,1.10
2023-03-15T15:51:29.172Z,1.30
2023-03-15T15:53:58.521Z,1.48
2023-03-15T15:56:44.082Z,1.75
2023-03-15T15:59:14.904Z,1.15
2023-03-15T16:01:56.508Z,1.45
2023-03-15T16:04:26.234Z,1.50
2023-03-15T16:06:59.486Z,1.15
2023-03-15T16:09:30.360Z,0.95
2023-03-15T16:11:57.418Z,1.25
2023-03-15T16:14:24.095Z,1.25
2023-03-15T16:16:50.874Z,1.20
2023-03-15T16:19:17.562Z,1.33
2023-03-15T16:21:51.681Z,1.30
2023-03-15T16:24:27.724Z,1.20
2023-03-15T16:27:03.161Z,1.30
2023-03-15T16:29:47.503Z,1.13
2023-03-15T16:32:20.845Z,1.15
2023-03-15T16:34:57.021Z,0.90
2023-03-15T16:37:28.836Z,0.98
2023-03-15T16:39:56.025Z,0.63
2023-03-15T16:42:26.109Z,1.05
2023-03-15T16:44:56.154Z,1.40
2023-03-15T16:47:24.996Z,0.80
2023-03-15T16:49:51.713Z,1.17
2023-03-15T16:52:18.541Z,0.88
2023-03-15T16:54:48.440Z,0.98
2023-03-15T16:57:24.094Z,0.80
2023-03-15T16:59:51.389Z,1.00
2023-03-15T17:02:24.502Z,1.10
2023-03-15T17:04:52.892Z,0.65
2023-03-15T17:07:27.633Z,1.15
2023-03-15T17:09:54.466Z,1.13
2023-03-15T17:12:25.780Z,1.10
2023-03-15T17:14:55.842Z,1.35
2023-03-15T17:19:49.329Z,1.50
2023-03-15T17:22:17.550Z,1.00
2023-03-15T17:24:44.509Z,1.13
2023-03-15T17:27:24.637Z,1.20
2023-03-15T17:32:18.229Z,1.20
2023-03-15T17:34:47.662Z,1.58
2023-03-15T17:37:21.081Z,1.50
2023-03-15T17:39:48.643Z,1.70
2023-03-15T17:42:15.715Z,1.90
2023-03-15T17:44:42.680Z,1.77
2023-03-15T17:47:12.963Z,2.00
2023-03-15T17:49:42.011Z,2.22
2023-03-15T17:52:17.641Z,2.03
2023-03-15T17:54:44.467Z,2.15
2023-03-15T17:57:13.695Z,2.40
2023-03-15T17:59:40.419Z,2.10
2023-03-15T18:02:15.048Z,2.10
2023-03-15T18:04:44.018Z,2.40
2023-03-15T18:07:10.732Z,2.80
2023-03-15T18:09:37.884Z,2.50
2023-03-15T18:12:04.847Z,2.42
2023-03-15T18:14:37.419Z,2.63
2023-03-15T18:17:06.784Z,2.40
2023-03-15T18:19:33.488Z,2.40
2023-03-15T18:22:02.811Z,2.58
2023-03-15T18:24:31.679Z,2.53
2023-03-15T18:26:58.404Z,2.30
2023-03-15T18:29:25.136Z,2.22
2023-03-15T18:31:51.978Z,2.17
2023-03-15T18:34:21.893Z,2.47
2023-03-15T18:36:48.784Z,2.53
2023-03-15T18:39:15.493Z,2.72
2023-03-15T18:41:42.211Z,2.20
2023-03-15T18:44:10.533Z,2.58
2023-03-15T18:46:37.205Z,2.70
2023-03-15T18:49:04.888Z,2.72
2023-03-15T18:51:34.181Z,2.75
2023-03-15T18:54:00.892Z,2.53
2023-03-15T18:56:34.185Z,2.90
2023-03-15T18:59:04.057Z,2.95
2023-03-15T19:01:33.487Z,3.50
2023-03-15T19:04:03.666Z,2.50
2023-03-15T19:06:32.966Z,3.28
2023-03-15T19:09:02.223Z,3.00
2023-03-15T19:11:32.123Z,3.27
2023-03-15T19:13:58.915Z,3.03
2023-03-15T19:16:30.760Z,3.72
2023-03-15T19:18:59.798Z,3.60
2023-03-15T19:21:26.778Z,3.88
2023-03-15T19:23:53.506Z,3.58
2023-03-15T19:26:20.156Z,3.92
2023-03-15T19:28:46.906Z,3.95
2023-03-15T19:31:15.928Z,4.07
2023-03-15T19:33:42.784Z,3.88
2023-03-15T19:36:11.846Z,4.43
2023-03-15T19:38:38.574Z,3.85
2023-03-15T19:41:06.999Z,4.18
2023-03-15T19:43:34.010Z,4.38
2023-03-15T19:46:05.211Z,4.07
2023-03-15T19:48:34.675Z,4.53
2023-03-15T19:51:01.547Z,3.88
2023-03-15T19:53:30.361Z,4.40
2023-03-15T19:55:57.335Z,4.32
2023-03-15T19:58:26.817Z,3.65
2023-03-15T20:00:57.330Z,4.15
2023-03-15T20:03:28.745Z,3.70
2023-03-15T20:05:55.524Z,3.55
2023-03-15T20:08:23.733Z,3.42
2023-03-15T20:10:59.677Z,3.87
2023-03-15T20:13:26.366Z,4.05
2023-03-15T20:15:53.271Z,3.83
2023-03-15T20:18:19.974Z,4.82
2023-03-15T20:20:46.773Z,4.10
2023-03-15T20:23:14.572Z,3.80
2023-03-15T20:25:41.274Z,3.92
2023-03-15T20:28:08.192Z,4.05
2023-03-15T20:30:35.422Z,3.38
2023-03-15T20:33:02.186Z,4.00
2023-03-15T20:35:28.976Z,3.55
2023-03-15T20:37:56.297Z,3.50
2023-03-15T20:40:23.517Z,3.83
2023-03-15T20:42:50.380Z,3.83
2023-03-15T20:45:17.465Z,3.85
2023-03-15T20:47:44.178Z,4.13
2023-03-15T20:50:12.480Z,3.58
2023-03-15T20:52:39.378Z,3.63
2023-03-15T20:55:07.938Z,4.15
2023-03-15T20:57:36.323Z,4.15
2023-03-15T21:00:12.285Z,4.38
2023-03-15T21:02:40.186Z,4.78
2023-03-15T21:05:12.962Z,4.22
2023-03-15T21:07:44.952Z,5.07
2023-03-15T21:10:15.978Z,4.55
2023-03-15T21:12:44.132Z,3.92
2023-03-15T21:15:15.458Z,4.53
2023-03-15T21:17:45.581Z,4.50
2023-03-15T21:22:47.344Z,4.25
2023-03-15T21:25:14.077Z,5.25
2023-03-15T21:27:43.652Z,4.78
2023-03-15T21:30:14.022Z,4.70
2023-03-15T21:32:42.280Z,4.65
2023-03-15T21:35:11.523Z,4.30
2023-03-15T21:37:38.341Z,3.40
2023-03-15T21:40:06.900Z,4.22
2023-03-15T21:42:34.205Z,3.78
2023-03-15T21:45:00.965Z,3.97
2023-03-15T21:47:27.698Z,4.25
2023-03-15T21:49:55.009Z,4.60
2023-03-15T21:52:21.802Z,3.50
2023-03-15T21:54:50.496Z,3.88
2023-03-15T21:57:17.230Z,3.90
2023-03-15T21:59:44.398Z,4.00
2023-03-15T22:02:14.135Z,4.03
2023-03-15T22:04:44.237Z,4.13
2023-03-15T22:07:11.433Z,3.92
2023-03-15T22:09:38.328Z,3.78
2023-03-15T22:12:05.912Z,3.58
2023-03-15T22:14:32.626Z,4.00
2023-03-15T22:16:59.361Z,4.05
2023-03-15T22:19:28.456Z,3.42
2023-03-15T22:21:56.249Z,4.05
2023-03-15T22:24:22.935Z,3.70
2023-03-15T22:26:50.397Z,3.60
2023-03-15T22:29:17.067Z,3.28
2023-03-15T22:31:46.303Z,4.10
2023-03-15T22:34:13.014Z,3.67
2023-03-15T22:36:39.748Z,3.40
2023-03-15T22:39:07.662Z,2.92
2023-03-15T22:41:37.160Z,3.47
2023-03-15T22:44:06.712Z,3.40
2023-03-15T22:46:35.299Z,3.33
2023-03-15T22:49:03.337Z,3.22
2023-03-15T22:51:32.540Z,3.30
2023-03-15T22:54:01.429Z,2.70
2023-03-15T22:56:30.387Z,2.83
2023-03-15T22:58:59.296Z,2.88
2023-03-15T23:01:28.424Z,3.08
2023-03-15T23:03:57.375Z,3.67
2023-03-15T23:06:24.084Z,3.60
2023-03-15T23:08:50.904Z,3.30
2023-03-15T23:11:20.434Z,3.30
2023-03-15T23:13:48.770Z,3.67
2023-03-15T23:16:16.874Z,3.42
2023-03-15T23:18:43.696Z,3.42
2023-03-15T23:21:13.127Z,3.20
2023-03-15T23:23:40.729Z,3.83
2023-03-15T23:26:07.469Z,3.67
2023-03-15T23:28:34.960Z,3.55
2023-03-15T23:31:05.722Z,4.40
2023-03-15T23:33:33.988Z,3.63
2023-03-15T23:36:02.688Z,3.47
2023-03-15T23:38:29.493Z,3.75
2023-03-15T23:41:00.121Z,3.00
2023-03-15T23:43:27.326Z,3.95
2023-03-15T23:46:04.795Z,3.50
2023-03-15T23:48:36.977Z,3.92
2023-03-15T23:51:03.932Z,3.63
2023-03-15T23:53:33.238Z,4.15
2023-03-15T23:55:59.988Z,3.83
2023-03-15T23:58:28.944Z,3.60
